createdAt,value
2023-12-01T00:00:37.822Z,8.07
2023-12-01T00:02:39.839Z,8.10
2023-12-01T00:04:41.726Z,7.88
2023-12-01T00:06:43.617Z,7.20
2023-12-01T00:08:45.435Z,7.72
2023-12-01T00:10:47.250Z,6.95
2023-12-01T00:12:49.332Z,7.38
2023-12-01T00:14:51.227Z,7.28
2023-12-01T00:16:53.149Z,6.97
2023-12-01T00:18:55.092Z,8.68
2023-12-01T00:20:57.254Z,8.48
2023-12-01T00:23:01.172Z,9.00
2023-12-01T00:25:03.208Z,6.95
2023-12-01T00:27:05.426Z,8.38
2023-12-01T00:29:07.239Z,7.18
2023-12-01T00:31:09.036Z,6.72
2023-12-01T00:33:10.942Z,7.28
2023-12-01T00:35:12.958Z,7.53
2023-12-01T00:37:17.771Z,7.00
2023-12-01T00:39:19.696Z,7.80
2023-12-01T00:41:21.918Z,7.43
2023-12-01T00:43:23.867Z,7.93
2023-12-01T00:45:25.774Z,7.80
2023-12-01T00:47:27.720Z,8.32
2023-12-01T00:49:32.457Z,8.07
2023-12-01T00:51:34.320Z,7.97
2023-12-01T00:53:36.229Z,7.82
2023-12-01T00:55:37.992Z,7.40
2023-12-01T00:57:39.795Z,8.13
2023-12-01T00:59:41.632Z,8.38
2023-12-01T01:01:43.499Z,8.35
2023-12-01T01:03:45.459Z,8.10
2023-12-01T01:05:47.279Z,7.63
2023-12-01T01:07:49.123Z,7.75
2023-12-01T01:09:51.698Z,7.45
2023-12-01T01:11:53.540Z,8.40
2023-12-01T01:13:55.379Z,9.13
2023-12-01T01:15:57.366Z,8.32
2023-12-01T01:17:59.215Z,7.85
2023-12-01T01:20:05.107Z,7.68
2023-12-01T01:22:07.041Z,7.90
2023-12-01T01:24:09.021Z,8.48
2023-12-01T01:26:10.999Z,7.80
2023-12-01T01:28:12.970Z,8.00
2023-12-01T01:30:15.091Z,6.97
2023-12-01T01:32:17.318Z,7.35
2023-12-01T01:34:20.542Z,7.07
2023-12-01T01:36:23.792Z,8.27
2023-12-01T01:38:25.594Z,7.30
2023-12-01T01:40:27.457Z,7.30
2023-12-01T01:42:29.294Z,7.57
2023-12-01T01:44:31.124Z,7.60
2023-12-01T01:46:32.962Z,8.05
2023-12-01T01:48:35.660Z,7.88
2023-12-01T01:50:37.968Z,8.60
2023-12-01T01:52:41.270Z,7.90
2023-12-01T01:54:44.446Z,8.07
2023-12-01T01:56:46.512Z,7.95
2023-12-01T01:58:48.491Z,8.63
2023-12-01T02:00:51.009Z,8.63
2023-12-01T02:02:53.352Z,8.68
2023-12-01T02:04:55.218Z,7.57
2023-12-01T02:06:58.002Z,8.77
2023-12-01T02:09:00.265Z,8.98
2023-12-01T02:11:02.532Z,8.38
2023-12-01T02:13:11.481Z,8.45
2023-12-01T02:15:14.012Z,8.15
2023-12-01T02:17:15.931Z,7.78
2023-12-01T02:19:17.785Z,8.98
2023-12-01T02:21:24.618Z,8.43
2023-12-01T02:23:27.666Z,8.70
2023-12-01T02:25:29.652Z,8.80
2023-12-01T02:27:31.450Z,7.68
2023-12-01T02:29:33.262Z,7.15
2023-12-01T02:31:35.223Z,8.40
2023-12-01T02:33:37.205Z,7.32
2023-12-01T02:35:39.187Z,7.88
2023-12-01T02:37:41.118Z,7.40
2023-12-01T02:39:43.254Z,8.23
2023-12-01T02:41:45.218Z,7.10
2023-12-01T02:43:47.193Z,6.72
2023-12-01T02:45:49.241Z,7.07
2023-12-01T02:47:51.451Z,7.15
2023-12-01T02:49:53.343Z,7.00
2023-12-01T02:51:55.207Z,7.13
2023-12-01T02:53:57.165Z,7.22
2023-12-01T02:55:59.065Z,6.60
2023-12-01T02:58:01.657Z,7.18
2023-12-01T03:00:07.102Z,6.63
2023-12-01T03:02:08.944Z,7.38
2023-12-01T03:04:10.908Z,7.80
2023-12-01T03:06:12.822Z,6.75
2023-12-01T03:08:14.694Z,7.32
2023-12-01T03:10:16.655Z,8.10
2023-12-01T03:12:18.519Z,6.95
2023-12-01T03:14:21.036Z,6.47
2023-12-01T03:16:22.984Z,7.07
2023-12-01T03:18:25.034Z,6.90
2023-12-01T03:20:28.990Z,7.40
2023-12-01T03:22:30.846Z,6.70
2023-12-01T03:24:32.760Z,6.80
2023-12-01T03:26:34.606Z,6.68
2023-12-01T03:28:36.443Z,6.60
2023-12-01T03:30:38.391Z,6.82
2023-12-01T03:32:46.360Z,6.50
2023-12-01T03:34:48.707Z,7.55
2023-12-01T03:36:50.503Z,6.45
2023-12-01T03:38:52.318Z,6.70
2023-12-01T03:40:54.528Z,7.10
2023-12-01T03:42:56.821Z,7.85
2023-12-01T03:44:58.997Z,7.65
2023-12-01T03:47:01.036Z,6.72
2023-12-01T03:49:03.213Z,8.20
2023-12-01T03:51:05.499Z,7.60
2023-12-01T03:53:08.332Z,8.48
2023-12-01T03:55:11.507Z,6.63
2023-12-01T03:57:14.937Z,7.90
2023-12-01T03:59:16.732Z,7.47
2023-12-01T04:01:18.734Z,7.07
2023-12-01T04:03:21.018Z,7.78
2023-12-01T04:05:24.505Z,8.65
2023-12-01T04:07:26.656Z,7.63
2023-12-01T04:09:28.458Z,7.45
2023-12-01T04:11:30.342Z,8.05
2023-12-01T04:13:32.364Z,7.93
2023-12-01T04:15:35.083Z,7.80
2023-12-01T04:17:36.972Z,7.35
2023-12-01T04:19:39.663Z,7.82
2023-12-01T04:21:41.591Z,8.30
2023-12-01T04:23:43.557Z,7.60
2023-12-01T04:25:48.472Z,8.18
2023-12-01T04:27:52.568Z,7.80
2023-12-01T04:29:56.165Z,8.23
2023-12-01T04:32:01.836Z,7.97
2023-12-01T04:34:04.295Z,8.18
2023-12-01T04:36:07.920Z,8.02
2023-12-01T04:38:10.452Z,7.97
2023-12-01T04:40:18.330Z,8.20
2023-12-01T04:42:20.160Z,8.13
2023-12-01T04:44:22.019Z,7.43
2023-12-01T04:46:23.885Z,8.02
2023-12-01T04:48:25.741Z,8.18
2023-12-01T04:50:29.491Z,8.55
2023-12-01T04:52:31.255Z,8.57
2023-12-01T04:54:33.024Z,7.47
2023-12-01T04:56:35.066Z,7.68
2023-12-01T04:58:36.873Z,6.80
2023-12-01T05:00:38.874Z,7.05
2023-12-01T05:02:41.001Z,7.13
2023-12-01T05:04:42.867Z,7.47
2023-12-01T05:06:44.783Z,8.18
2023-12-01T05:08:46.645Z,7.85
2023-12-01T05:10:48.429Z,7.35
2023-12-01T05:12:51.995Z,7.68
2023-12-01T05:14:54.806Z,7.32
2023-12-01T05:16:56.682Z,7.90
2023-12-01T05:18:58.549Z,8.57
2023-12-01T05:21:00.464Z,8.48
2023-12-01T05:23:07.220Z,8.20
2023-12-01T05:25:14.949Z,9.45
2023-12-01T05:27:16.937Z,8.27
2023-12-01T05:29:18.888Z,8.00
2023-12-01T05:31:20.867Z,8.73
2023-12-01T05:33:24.122Z,8.82
2023-12-01T05:35:27.826Z,9.32
2023-12-01T05:37:29.747Z,8.10
2023-12-01T05:39:31.854Z,8.88
2023-12-01T05:41:33.638Z,10.45
2023-12-01T05:43:35.496Z,10.00
2023-12-01T05:45:37.994Z,9.52
2023-12-01T05:47:45.551Z,9.05
2023-12-01T05:49:47.389Z,9.10
2023-12-01T05:51:49.271Z,9.15
2023-12-01T05:53:51.148Z,9.93
2023-12-01T05:55:53.056Z,10.55
2023-12-01T05:57:59.381Z,10.75
2023-12-01T06:00:01.537Z,9.98
2023-12-01T06:02:12.200Z,10.80
2023-12-01T06:04:15.097Z,10.23
2023-12-01T06:06:16.900Z,10.57
2023-12-01T06:08:19.092Z,10.38
2023-12-01T06:10:21.426Z,9.88
2023-12-01T06:12:24.522Z,10.85
2023-12-01T06:14:27.670Z,10.27
2023-12-01T06:16:29.585Z,9.25
2023-12-01T06:18:31.530Z,9.90
2023-12-01T06:20:35.369Z,10.18
2023-12-01T06:22:37.145Z,9.13
2023-12-01T06:24:39.285Z,10.30
2023-12-01T06:26:41.459Z,10.23
2023-12-01T06:28:43.222Z,10.25
2023-12-01T06:30:45.066Z,12.00
2023-12-01T06:32:47.409Z,11.98
2023-12-01T06:34:49.321Z,10.57
2023-12-01T06:36:51.260Z,10.93
2023-12-01T06:38:53.121Z,10.88
2023-12-01T06:40:55.828Z,10.52
2023-12-01T06:42:57.887Z,10.30
2023-12-01T06:44:59.956Z,10.05
2023-12-01T06:47:02.410Z,10.40
2023-12-01T06:49:04.352Z,11.35
2023-12-01T06:51:06.644Z,10.60
2023-12-01T06:53:08.862Z,11.35
2023-12-01T06:55:11.119Z,12.02
2023-12-01T06:57:13.049Z,10.10
2023-12-01T06:59:14.858Z,10.23
2023-12-01T07:01:19.843Z,9.77
2023-12-01T07:03:21.777Z,10.70
2023-12-01T07:05:28.029Z,10.98
2023-12-01T07:07:31.656Z,9.88
2023-12-01T07:09:35.120Z,10.82
2023-12-01T07:11:38.072Z,12.15
2023-12-01T07:13:39.913Z,9.18
2023-12-01T07:15:41.957Z,10.25
2023-12-01T07:17:43.855Z,11.50
2023-12-01T07:19:46.189Z,10.35
2023-12-01T07:21:48.950Z,12.73
2023-12-01T07:23:50.775Z,11.45
2023-12-01T07:25:52.559Z,10.75
2023-12-01T07:27:58.382Z,11.95
2023-12-01T07:30:00.320Z,12.23
2023-12-01T07:32:02.895Z,10.65
2023-12-01T07:34:04.828Z,11.18
2023-12-01T07:36:12.916Z,11.82
2023-12-01T07:38:16.520Z,11.55
2023-12-01T07:40:20.710Z,11.33
2023-12-01T07:42:25.637Z,10.98
2023-12-01T07:44:29.949Z,11.68
2023-12-01T07:46:34.619Z,12.23
2023-12-01T07:48:37.125Z,11.27
2023-12-01T07:50:39.175Z,11.20
2023-12-01T07:52:43.647Z,11.25
2023-12-01T07:54:45.964Z,10.13
2023-12-01T07:56:47.861Z,10.57
2023-12-01T07:58:52.605Z,10.35
2023-12-01T08:00:54.983Z,10.90
2023-12-01T08:02:57.516Z,10.85
2023-12-01T08:04:59.576Z,10.02
2023-12-01T08:07:02.932Z,9.85
2023-12-01T08:09:04.741Z,11.02
2023-12-01T08:11:06.920Z,11.00
2023-12-01T08:13:09.510Z,11.40
2023-12-01T08:15:12.143Z,10.75
2023-12-01T08:17:13.955Z,11.65
2023-12-01T08:19:15.807Z,12.45
2023-12-01T08:21:17.711Z,10.15
2023-12-01T08:23:19.718Z,11.00
2023-12-01T08:25:24.678Z,10.32
2023-12-01T08:27:26.480Z,10.25
2023-12-01T08:29:28.734Z,11.20
2023-12-01T08:31:33.800Z,12.07
2023-12-01T08:33:38.820Z,11.15
2023-12-01T08:35:41.991Z,10.38
2023-12-01T08:37:43.866Z,10.63
2023-12-01T08:39:45.792Z,10.40
2023-12-01T08:41:47.717Z,11.40
2023-12-01T08:43:49.686Z,10.70
2023-12-01T08:45:51.910Z,10.98
2023-12-01T08:47:54.490Z,10.43
2023-12-01T08:49:57.756Z,10.80
2023-12-01T08:51:59.519Z,11.57
2023-12-01T08:54:01.481Z,11.07
2023-12-01T08:56:03.474Z,10.65
2023-12-01T08:58:08.072Z,11.70
2023-12-01T09:00:10.748Z,12.27
2023-12-01T09:02:14.252Z,11.70
2023-12-01T09:04:17.076Z,12.30
2023-12-01T09:06:19.077Z,11.70
2023-12-01T09:08:20.935Z,12.27
2023-12-01T09:10:23.897Z,13.07
2023-12-01T09:12:26.460Z,11.55
2023-12-01T09:14:28.386Z,10.73
2023-12-01T09:16:30.126Z,14.82
2023-12-01T09:18:32.028Z,13.50
2023-12-01T09:20:33.856Z,13.77
2023-12-01T09:22:37.376Z,13.75
2023-12-01T09:24:39.221Z,14.20
2023-12-01T09:26:41.501Z,13.60
2023-12-01T09:28:43.360Z,12.98
2023-12-01T09:30:45.196Z,14.93
2023-12-01T09:32:47.437Z,15.10
2023-12-01T09:34:49.503Z,13.77
2023-12-01T09:36:51.819Z,13.35
2023-12-01T09:38:55.643Z,13.98
2023-12-01T09:40:57.990Z,13.05
2023-12-01T09:43:00.335Z,12.90
2023-12-01T09:45:04.638Z,12.35
2023-12-01T09:47:11.809Z,11.57
2023-12-01T09:49:13.720Z,12.45
2023-12-01T09:51:15.637Z,11.70
2023-12-01T09:53:17.758Z,12.88
2023-12-01T09:55:20.749Z,13.00
2023-12-01T09:57:22.793Z,12.98
2023-12-01T09:59:24.998Z,12.63
2023-12-01T10:01:26.922Z,12.27
2023-12-01T10:03:31.707Z,13.32
2023-12-01T10:05:35.463Z,12.73
2023-12-01T10:07:37.253Z,12.57
2023-12-01T10:09:39.488Z,14.65
2023-12-01T10:11:41.364Z,13.80
2023-12-01T10:13:43.228Z,14.15
2023-12-01T10:15:48.938Z,14.55
2023-12-01T10:17:51.013Z,14.45
2023-12-01T10:19:53.295Z,13.70
2023-12-01T10:28:13.452Z,15.52
2023-12-01T10:30:16.227Z,15.82
2023-12-01T10:32:19.505Z,14.68
2023-12-01T10:34:21.365Z,15.17
2023-12-01T10:36:23.607Z,14.13
2023-12-01T10:38:34.292Z,14.63
2023-12-01T10:40:36.075Z,14.65
2023-12-01T10:42:38.003Z,13.55
2023-12-01T10:44:41.169Z,15.07
2023-12-01T10:46:49.948Z,13.50
2023-12-01T10:48:53.136Z,14.70
2023-12-01T10:50:55.680Z,14.53
2023-12-01T10:53:00.405Z,13.60
2023-12-01T10:55:02.206Z,14.15
2023-12-01T10:57:28.022Z,13.70
2023-12-01T10:59:32.570Z,13.98
2023-12-01T11:01:35.035Z,14.20
2023-12-01T11:03:42.152Z,12.50
2023-12-01T11:05:44.871Z,13.77
2023-12-01T11:08:00.237Z,12.48
2023-12-01T11:10:43.473Z,13.10
2023-12-01T11:13:00.209Z,11.27
2023-12-01T11:15:17.375Z,11.23
2023-12-01T11:17:20.207Z,10.88
2023-12-01T11:19:24.687Z,11.93
2023-12-01T11:25:54.848Z,12.07
2023-12-01T11:27:56.691Z,11.40
2023-12-01T11:30:09.630Z,10.45
2023-12-01T11:32:11.828Z,10.88
2023-12-01T11:34:14.662Z,10.20
2023-12-01T11:36:33.262Z,11.45
2023-12-01T11:39:21.628Z,9.48
2023-12-01T11:41:23.864Z,10.65
2023-12-01T11:43:28.568Z,11.70
2023-12-01T11:45:43.627Z,10.25
2023-12-01T11:47:46.119Z,9.88
2023-12-01T11:49:48.270Z,10.48
2023-12-01T11:51:50.554Z,10.65
2023-12-01T11:53:58.089Z,10.10
2023-12-01T11:56:01.373Z,10.43
2023-12-01T11:58:03.254Z,9.57
2023-12-01T12:00:10.310Z,9.00
2023-12-01T12:02:12.807Z,10.45
2023-12-01T12:04:17.473Z,10.18
2023-12-01T12:06:21.132Z,9.18
2023-12-01T12:08:24.091Z,9.60
2023-12-01T12:10:26.674Z,9.98
2023-12-01T12:12:29.203Z,11.15
2023-12-01T12:14:32.106Z,11.88
2023-12-01T12:16:35.704Z,12.40
2023-12-01T12:18:38.175Z,12.90
2023-12-01T12:20:40.387Z,12.52
2023-12-01T12:22:42.375Z,12.73
2023-12-01T12:24:46.008Z,12.75
2023-12-01T12:26:57.747Z,11.48
2023-12-01T12:29:04.722Z,11.60
2023-12-01T12:31:07.363Z,12.88
2023-12-01T12:33:10.900Z,13.75
2023-12-01T12:35:12.979Z,14.65
2023-12-01T12:37:15.118Z,16.05
2023-12-01T12:39:17.974Z,14.65
2023-12-01T12:41:24.858Z,13.23
2023-12-01T12:43:27.416Z,14.65
2023-12-01T12:45:30.273Z,12.85
2023-12-01T12:47:32.267Z,11.70
2023-12-01T12:49:34.699Z,10.75
2023-12-01T12:51:37.601Z,12.13
2023-12-01T12:53:39.431Z,13.13
2023-12-01T12:55:41.295Z,11.93
2023-12-01T12:57:43.113Z,11.60
2023-12-01T12:59:44.925Z,11.50
2023-12-01T13:01:47.072Z,11.23
2023-12-01T13:03:50.920Z,10.32
2023-12-01T13:05:54.235Z,9.90
2023-12-01T13:07:56.155Z,9.93
2023-12-01T13:09:58.064Z,9.52
2023-12-01T13:12:00.050Z,10.05
2023-12-01T13:14:01.935Z,10.05
2023-12-01T13:16:04.042Z,10.40
2023-12-01T13:18:06.571Z,11.18
2023-12-01T13:20:09.161Z,10.30
2023-12-01T13:22:11.110Z,9.40
2023-12-01T13:24:12.966Z,11.18
2023-12-01T13:26:16.818Z,10.50
2023-12-01T13:28:19.430Z,11.65
2023-12-01T13:30:21.581Z,10.00
2023-12-01T13:32:23.880Z,11.65
2023-12-01T13:34:26.100Z,10.48
2023-12-01T13:36:27.935Z,12.35
2023-12-01T13:38:29.836Z,11.32
2023-12-01T13:40:32.270Z,10.13
2023-12-01T13:42:34.122Z,12.57
2023-12-01T13:44:36.005Z,11.85
2023-12-01T13:46:38.026Z,12.25
2023-12-01T13:48:39.861Z,13.13
2023-12-01T13:50:41.850Z,10.80
2023-12-01T13:52:44.064Z,10.63
2023-12-01T13:54:45.832Z,10.82
2023-12-01T13:56:47.723Z,10.68
2023-12-01T13:58:50.234Z,10.90
2023-12-01T14:00:52.092Z,11.98
2023-12-01T14:02:54.155Z,11.00
2023-12-01T14:04:56.033Z,9.98
2023-12-01T14:06:57.862Z,11.00
2023-12-01T14:09:00.104Z,11.07
2023-12-01T14:11:02.795Z,10.68
2023-12-01T14:13:07.460Z,9.55
2023-12-01T14:15:10.356Z,13.35
2023-12-01T14:17:12.196Z,9.95
2023-12-01T14:19:13.988Z,8.70
2023-12-01T14:21:16.321Z,10.30
2023-12-01T14:23:18.248Z,8.93
2023-12-01T14:25:20.093Z,8.05
2023-12-01T14:27:22.709Z,10.18
2023-12-01T14:29:25.957Z,10.27
2023-12-01T14:31:27.981Z,10.27
2023-12-01T14:33:30.092Z,10.27
2023-12-01T14:35:32.002Z,10.55
2023-12-01T14:37:33.837Z,13.07
2023-12-01T14:39:35.703Z,17.55
2023-12-01T14:41:37.530Z,58.78
2023-12-01T14:43:39.321Z,92.30
2023-12-01T14:45:42.617Z,60.17
2023-12-01T14:47:44.768Z,96.47
2023-12-01T14:49:46.598Z,63.88
2023-12-01T14:51:48.395Z,58.53
2023-12-01T14:53:50.339Z,55.85
2023-12-01T14:55:52.293Z,45.65
2023-12-01T14:57:54.101Z,49.38
2023-12-01T14:59:56.017Z,45.45
2023-12-01T15:01:58.028Z,40.22
2023-12-01T15:04:00.486Z,34.60
2023-12-01T15:06:02.655Z,34.13
2023-12-01T15:08:04.904Z,32.00
2023-12-01T15:10:07.787Z,28.48
2023-12-01T15:12:09.931Z,27.05
2023-12-01T15:25:26.367Z,17.88
2023-12-01T15:27:28.620Z,15.15
2023-12-01T15:29:30.573Z,14.85
2023-12-01T15:31:32.441Z,12.82
2023-12-01T15:33:34.309Z,14.18
2023-12-01T15:35:36.217Z,12.02
2023-12-01T15:37:38.763Z,11.02
2023-12-01T15:39:40.832Z,10.73
2023-12-01T15:41:42.701Z,11.07
2023-12-01T15:43:44.481Z,11.18
2023-12-01T15:45:46.328Z,10.02
2023-12-01T15:47:48.311Z,10.13
2023-12-01T15:49:50.321Z,8.70
2023-12-01T15:51:52.218Z,8.98
2023-12-01T15:53:54.075Z,9.27
2023-12-01T15:55:55.854Z,10.18
2023-12-01T15:57:57.729Z,9.13
2023-12-01T16:00:01.299Z,9.50
2023-12-01T16:02:04.731Z,8.68
2023-12-01T16:04:06.708Z,10.80
2023-12-01T16:06:09.035Z,10.55
2023-12-01T16:08:10.885Z,8.50
2023-12-01T16:10:12.693Z,8.38
2023-12-01T16:12:14.490Z,10.07
2023-12-01T16:14:16.427Z,8.77
2023-12-01T16:16:18.181Z,9.05
2023-12-01T16:18:24.651Z,8.52
2023-12-01T16:20:26.834Z,8.20
2023-12-01T16:22:28.671Z,9.00
2023-12-01T16:24:33.787Z,10.10
2023-12-01T16:26:40.457Z,13.02
2023-12-01T16:28:43.397Z,11.32
2023-12-01T16:30:46.423Z,10.10
2023-12-01T16:32:48.876Z,8.68
2023-12-01T16:34:50.701Z,8.38
2023-12-01T16:36:54.036Z,8.75
2023-12-01T16:38:56.967Z,10.50
2023-12-01T16:47:19.494Z,11.65
2023-12-01T16:49:21.473Z,10.50
2023-12-01T16:51:23.336Z,10.50
2023-12-01T16:53:25.168Z,9.75
2023-12-01T16:59:40.591Z,9.70
2023-12-01T17:01:45.634Z,10.50
2023-12-01T17:03:47.646Z,9.98
2023-12-01T17:05:49.571Z,9.25
2023-12-01T17:07:51.357Z,11.40
2023-12-01T17:11:59.943Z,9.90
2023-12-01T17:14:01.761Z,11.65
2023-12-01T17:16:03.917Z,9.27
2023-12-01T17:24:21.523Z,12.65
2023-12-01T17:26:23.388Z,12.23
2023-12-01T17:28:25.353Z,12.43
2023-12-01T17:32:34.205Z,14.60
2023-12-01T17:36:44.762Z,13.25
2023-12-01T17:38:46.625Z,12.10
2023-12-01T17:40:48.679Z,12.73
2023-12-01T17:42:50.552Z,11.55
2023-12-01T17:44:52.425Z,11.80
2023-12-01T17:49:01.783Z,12.20
2023-12-01T17:51:03.764Z,12.15
2023-12-01T17:53:05.575Z,16.65
2023-12-01T17:55:07.648Z,13.27
2023-12-01T17:57:10.795Z,13.25
2023-12-01T17:59:12.769Z,12.45
2023-12-01T18:01:14.618Z,12.15
2023-12-01T18:03:16.542Z,13.25
2023-12-01T18:05:18.591Z,12.68
2023-12-01T18:07:20.440Z,15.25
2023-12-01T18:09:22.481Z,12.65
2023-12-01T18:11:24.656Z,11.50
2023-12-01T18:13:26.397Z,13.02
2023-12-01T18:15:28.264Z,12.70
2023-12-01T18:17:30.261Z,14.82
2023-12-01T18:21:38.822Z,15.25
2023-12-01T18:23:40.910Z,15.63
2023-12-01T18:25:42.822Z,12.55
2023-12-01T18:27:44.573Z,10.82
2023-12-01T18:29:46.549Z,10.20
2023-12-01T18:31:48.459Z,10.27
2023-12-01T18:33:50.406Z,11.30
2023-12-01T18:35:52.323Z,10.15
2023-12-01T18:37:54.210Z,10.57
2023-12-01T18:39:56.174Z,11.13
2023-12-01T18:41:59.097Z,11.75
2023-12-01T18:44:01.072Z,12.73
2023-12-01T18:46:02.928Z,12.70
2023-12-01T18:48:05.207Z,10.90
2023-12-01T18:50:07.790Z,11.98
2023-12-01T18:52:10.129Z,11.30
2023-12-01T18:54:12.720Z,11.63
2023-12-01T18:56:14.569Z,11.93
2023-12-01T18:58:16.424Z,11.93
2023-12-01T19:00:18.505Z,11.02
2023-12-01T19:02:20.483Z,10.15
2023-12-01T19:04:22.776Z,10.73
2023-12-01T19:06:24.645Z,10.15
2023-12-01T19:08:26.731Z,9.80
2023-12-01T19:10:28.552Z,10.32
2023-12-01T19:12:30.492Z,9.90
2023-12-01T19:14:32.376Z,9.57
2023-12-01T19:16:34.164Z,10.45
2023-12-01T19:18:36.379Z,9.05
2023-12-01T19:20:38.292Z,10.02
2023-12-01T19:22:40.159Z,9.80
2023-12-01T19:24:41.969Z,9.30
2023-12-01T19:26:43.794Z,9.25
2023-12-01T19:28:45.639Z,9.25
2023-12-01T19:30:47.497Z,9.60
2023-12-01T19:32:49.501Z,9.05
2023-12-01T19:34:51.404Z,10.48
2023-12-01T19:36:54.800Z,9.75
2023-12-01T19:38:58.070Z,8.48
2023-12-01T19:40:59.876Z,8.85
2023-12-01T19:43:01.697Z,9.43
2023-12-01T19:45:05.107Z,9.65
2023-12-01T19:47:06.988Z,10.02
2023-12-01T19:49:08.999Z,9.20
2023-12-01T19:51:12.194Z,9.27
2023-12-01T19:53:14.148Z,9.97
2023-12-01T19:55:15.908Z,10.48
2023-12-01T19:57:17.869Z,9.85
2023-12-01T19:59:20.312Z,9.50
2023-12-01T20:01:22.538Z,9.35
2023-12-01T20:03:24.302Z,9.20
2023-12-01T20:05:26.118Z,9.15
2023-12-01T20:07:27.988Z,9.32
2023-12-01T20:09:29.870Z,10.50
2023-12-01T20:11:31.721Z,9.95
2023-12-01T20:13:33.574Z,9.55
2023-12-01T20:15:35.723Z,9.52
2023-12-01T20:17:37.628Z,9.32
2023-12-01T20:19:40.386Z,10.43
2023-12-01T20:21:42.196Z,10.90
2023-12-01T20:23:43.995Z,10.60
2023-12-01T20:25:45.894Z,10.10
2023-12-01T20:27:47.625Z,10.18
2023-12-01T20:29:49.555Z,10.68
2023-12-01T20:31:51.463Z,10.23
2023-12-01T20:33:53.352Z,10.63
2023-12-01T20:35:55.291Z,10.15
2023-12-01T20:37:57.520Z,10.20
2023-12-01T20:39:59.425Z,11.38
2023-12-01T20:42:02.084Z,11.38
2023-12-01T20:44:04.272Z,11.30
2023-12-01T20:46:06.576Z,10.27
2023-12-01T20:48:08.567Z,10.90
2023-12-01T20:50:10.568Z,10.27
2023-12-01T20:52:12.382Z,10.65
2023-12-01T20:54:14.340Z,11.05
2023-12-01T20:56:16.255Z,11.25
2023-12-01T20:58:18.088Z,11.23
2023-12-01T21:00:20.379Z,10.80
2023-12-01T21:02:22.251Z,11.75
2023-12-01T21:04:24.220Z,10.82
2023-12-01T21:06:26.174Z,11.50
2023-12-01T21:08:28.170Z,10.05
2023-12-01T21:10:30.031Z,11.57
2023-12-01T21:12:31.878Z,11.48
2023-12-01T21:14:33.676Z,10.23
2023-12-01T21:16:35.521Z,10.57
2023-12-01T21:18:37.525Z,11.35
2023-12-01T21:20:39.625Z,10.30
2023-12-01T21:22:41.461Z,10.65
2023-12-01T21:24:43.300Z,10.48
2023-12-01T21:26:45.125Z,10.98
2023-12-01T21:28:46.917Z,11.00
2023-12-01T21:30:48.715Z,11.13
2023-12-01T21:32:50.688Z,12.13
2023-12-01T21:34:52.626Z,12.50
2023-12-01T21:36:54.481Z,11.32
2023-12-01T21:38:56.363Z,12.32
2023-12-01T21:40:58.359Z,11.15
2023-12-01T21:43:00.299Z,11.70
2023-12-01T21:45:02.179Z,11.93
2023-12-01T21:47:04.194Z,11.60
2023-12-01T21:49:06.866Z,11.43
2023-12-01T21:51:09.128Z,10.73
2023-12-01T21:53:11.031Z,11.30
2023-12-01T21:55:12.905Z,12.10
2023-12-01T21:57:16.838Z,13.23
2023-12-01T21:59:18.848Z,11.45
2023-12-01T22:01:20.916Z,11.85
2023-12-01T22:03:22.811Z,11.60
2023-12-01T22:05:24.852Z,11.88
2023-12-01T22:07:26.994Z,11.65
2023-12-01T22:09:28.918Z,12.38
2023-12-01T22:11:30.803Z,12.95
2023-12-01T22:13:32.652Z,12.35
2023-12-01T22:15:34.852Z,12.07
2023-12-01T22:17:38.553Z,10.98
2023-12-01T22:19:40.495Z,11.52
2023-12-01T22:21:42.348Z,12.20
2023-12-01T22:23:44.153Z,12.18
2023-12-01T22:25:45.927Z,12.63
2023-12-01T22:27:47.779Z,12.27
2023-12-01T22:29:49.696Z,12.45
2023-12-01T22:31:51.568Z,13.82
2023-12-01T22:33:53.394Z,12.75
2023-12-01T22:35:55.270Z,12.70
2023-12-01T22:37:57.091Z,11.75
2023-12-01T22:39:58.830Z,12.00
2023-12-01T22:42:00.671Z,11.90
2023-12-01T22:44:02.646Z,12.10
2023-12-01T22:46:04.856Z,12.10
2023-12-01T22:48:06.969Z,12.25
2023-12-01T22:50:10.002Z,13.55
2023-12-01T22:52:11.804Z,12.27
2023-12-01T22:54:13.641Z,12.80
2023-12-01T22:56:15.502Z,12.68
2023-12-01T22:58:17.368Z,13.02
2023-12-01T23:00:29.140Z,12.07
2023-12-01T23:02:31.255Z,11.98
2023-12-01T23:04:33.278Z,11.73
2023-12-01T23:06:35.526Z,11.85
2023-12-01T23:08:37.484Z,11.75
2023-12-01T23:10:39.417Z,10.68
2023-12-01T23:12:41.332Z,10.82
2023-12-01T23:14:43.466Z,11.23
2023-12-01T23:16:45.614Z,10.27
2023-12-01T23:18:47.566Z,11.00
2023-12-01T23:20:49.500Z,11.35
2023-12-01T23:22:51.475Z,10.48
2023-12-01T23:24:53.262Z,10.70
2023-12-01T23:26:55.166Z,9.93
2023-12-01T23:28:57.052Z,10.13
2023-12-01T23:30:58.922Z,9.23
2023-12-01T23:33:00.935Z,10.35
2023-12-01T23:35:03.775Z,9.48
2023-12-01T23:37:05.619Z,10.02
2023-12-01T23:39:07.644Z,9.98
2023-12-01T23:41:09.396Z,9.88
2023-12-01T23:43:11.364Z,9.40
2023-12-01T23:45:13.303Z,9.15
2023-12-01T23:47:15.143Z,8.80
2023-12-01T23:49:17.076Z,9.38
2023-12-01T23:51:18.971Z,9.32
2023-12-01T23:53:20.840Z,9.63
2023-12-01T23:55:22.636Z,8.52
2023-12-01T23:57:24.465Z,8.88
2023-12-01T23:59:26.696Z,8.63
